Time,TemperatureF,DewpointF,PressureIn,WindDirection,WindDirectionDegrees,WindSpeedMPH,WindSpeedGustMPH,Humidity,HourlyPrecipIn,Conditions,Clouds,dailyrainin,SoftwareType,DateUTC
2013-01-27 00:05:00,23.1,19.0,30.48,NNW,331,0.0,0.0,84,0.00,,,0.00,weatherlink.com 1.10,2013-01-27 05:05:00,
2013-01-27 00:21:00,22.9,18.0,30.48,WNW,282,0.0,3.0,82,0.00,,,0.00,weatherlink.com 1.10,2013-01-27 05:21:00,
2013-01-27 00:36:00,23.6,20.0,30.49,SSE,159,0.0,2.0,86,0.00,,,0.00,weatherlink.com 1.10,2013-01-27 05:36:00,
2013-01-27 00:51:00,23.2,19.0,30.49,SSE,162,1.0,2.0,85,0.00,,,0.00,weatherlink.com 1.10,2013-01-27 05:51:00,
2013-01-27 01:05:00,22.4,19.0,30.49,NW,312,0.0,2.0,85,0.00,,,0.00,weatherlink.com 1.10,2013-01-27 06:05:00,
2013-01-27 01:21:00,22.7,19.0,30.49,SSW,203,1.0,1.0,86,0.00,,,0.00,weatherlink.com 1.10,2013-01-27 06:21:00,
2013-01-27 01:35:00,22.2,19.0,30.50,West,260,0.0,1.0,86,0.00,,,0.00,weatherlink.com 1.10,2013-01-27 06:35:00,
2013-01-27 01:51:00,22.1,19.0,30.51,West,263,0.0,0.0,86,0.00,,,0.00,weatherlink.com 1.10,2013-01-27 06:51:00,
2013-01-27 02:06:00,21.5,18.0,30.51,West,262,0.0,0.0,86,0.00,,,0.00,weatherlink.com 1.10,2013-01-27 07:06:00,
2013-01-27 02:21:00,20.7,17.0,30.52,West,263,0.0,0.0,87,0.00,,,0.00,weatherlink.com 1.10,2013-01-27 07:21:00,
2013-01-27 02:36:00,20.2,17.0,30.52,WSW,243,0.0,0.0,88,0.00,,,0.00,weatherlink.com 1.10,2013-01-27 07:36:00,
2013-01-27 02:51:00,19.9,17.0,30.51,WSW,252,0.0,0.0,89,0.00,,,0.00,weatherlink.com 1.10,2013-01-27 07:51:00,
2013-01-27 03:06:00,19.9,17.0,30.52,WSW,252,1.0,1.0,89,0.00,,,0.00,weatherlink.com 1.10,2013-01-27 08:06:00,
2013-01-27 03:21:00,19.6,17.0,30.52,WNW,284,0.0,1.0,89,0.00,,,0.00,weatherlink.com 1.10,2013-01-27 08:21:00,
2013-01-27 03:36:00,19.8,17.0,30.52,WNW,283,0.0,1.0,90,0.00,,,0.00,weatherlink.com 1.10,2013-01-27 08:36:00,
2013-01-27 03:51:00,20.1,17.0,30.52,WNW,283,0.0,1.0,89,0.00,,,0.00,weatherlink.com 1.10,2013-01-27 08:51:00,
2013-01-27 04:06:00,20.4,18.0,30.53,WNW,284,0.0,0.0,89,0.00,,,0.00,weatherlink.com 1.10,2013-01-27 09:06:00,
2013-01-27 04:21:00,21.0,18.0,30.53,WNW,284,0.0,0.0,89,0.00,,,0.00,weatherlink.com 1.10,2013-01-27 09:21:00,
2013-01-27 04:36:00,21.3,19.0,30.53,WSW,257,0.0,0.0,89,0.00,,,0.00,weatherlink.com 1.10,2013-01-27 09:36:00,
2013-01-27 04:51:00,22.0,20.0,30.52,SW,236,0.0,0.0,90,0.00,,,0.00,weatherlink.com 1.10,2013-01-27 09:51:00,
2013-01-27 05:06:00,22.4,20.0,30.53,SW,236,0.0,0.0,90,0.00,,,0.00,weatherlink.com 1.10,2013-01-27 10:06:00,
2013-01-27 05:21:00,22.1,19.0,30.54,West,263,0.0,0.0,88,0.00,,,0.00,weatherlink.com 1.10,2013-01-27 10:21:00,
2013-01-27 05:36:00,21.7,19.0,30.53,West,266,0.0,0.0,88,0.00,,,0.00,weatherlink.com 1.10,2013-01-27 10:36:00,
2013-01-27 05:51:00,21.7,19.0,30.54,West,269,0.0,0.0,89,0.00,,,0.00,weatherlink.com 1.10,2013-01-27 10:51:00,
2013-01-27 06:06:00,22.0,20.0,30.54,West,269,0.0,0.0,90,0.00,,,0.00,weatherlink.com 1.10,2013-01-27 11:06:00,
2013-01-27 06:21:00,22.1,19.0,30.55,NW,312,1.0,1.0,89,0.00,,,0.00,weatherlink.com 1.10,2013-01-27 11:21:00,
2013-01-27 06:36:00,22.3,20.0,30.56,WNW,287,1.0,1.0,89,0.00,,,0.00,weatherlink.com 1.10,2013-01-27 11:36:00,
2013-01-27 06:51:00,22.8,20.0,30.57,WNW,287,0.0,0.0,89,0.00,,,0.00,weatherlink.com 1.10,2013-01-27 11:51:00,
2013-01-27 07:06:00,22.9,20.0,30.57,WNW,287,0.0,0.0,89,0.00,,,0.00,weatherlink.com 1.10,2013-01-27 12:06:00,
2013-01-27 07:21:00,22.7,20.0,30.58,WNW,287,0.0,0.0,88,0.00,,,0.00,weatherlink.com 1.10,2013-01-27 12:21:00,
2013-01-27 07:36:00,22.6,20.0,30.59,WNW,287,0.0,0.0,88,0.00,,,0.00,weatherlink.com 1.10,2013-01-27 12:36:00,
2013-01-27 07:51:00,22.7,20.0,30.59,WNW,287,0.0,1.0,88,0.00,,,0.00,weatherlink.com 1.10,2013-01-27 12:51:00,
2013-01-27 08:06:00,23.0,20.0,30.60,WNW,287,0.0,0.0,89,0.00,,,0.00,weatherlink.com 1.10,2013-01-27 13:06:00,
2013-01-27 08:21:00,23.6,20.0,30.61,NW,315,0.0,0.0,87,0.00,,,0.00,weatherlink.com 1.10,2013-01-27 13:21:00,
2013-01-27 08:36:00,25.1,21.0,30.61,North,352,2.0,3.0,85,0.00,,,0.00,weatherlink.com 1.10,2013-01-27 13:36:00,
2013-01-27 08:51:00,26.5,21.0,30.62,North,4,3.0,4.0,81,0.00,,,0.00,weatherlink.com 1.10,2013-01-27 13:51:00,
2013-01-27 09:06:00,27.4,21.0,30.63,NNE,32,7.0,7.0,77,0.00,,,0.00,weatherlink.com 1.10,2013-01-27 14:06:00,
2013-01-27 09:21:00,27.7,21.0,30.63,North,352,6.0,8.0,75,0.00,,,0.00,weatherlink.com 1.10,2013-01-27 14:21:00,
2013-01-27 09:37:00,28.3,21.0,30.63,NE,52,5.0,7.0,74,0.00,,,0.00,weatherlink.com 1.10,2013-01-27 14:37:00,
2013-01-27 09:52:00,28.6,20.0,30.64,ENE,65,4.0,5.0,71,0.00,,,0.00,weatherlink.com 1.10,2013-01-27 14:52:00,
2013-01-27 10:07:00,28.8,20.0,30.64,ENE,70,4.0,5.0,70,0.00,,,0.00,weatherlink.com 1.10,2013-01-27 15:07:00,
2013-01-27 10:22:00,29.0,20.0,30.64,ENE,69,4.0,4.0,70,0.00,,,0.00,weatherlink.com 1.10,2013-01-27 15:22:00,
2013-01-27 10:37:00,29.3,21.0,30.64,ENE,78,4.0,4.0,70,0.00,,,0.00,weatherlink.com 1.10,2013-01-27 15:37:00,
2013-01-27 10:52:00,29.5,20.0,30.63,East,89,4.0,5.0,68,0.00,,,0.00,weatherlink.com 1.10,2013-01-27 15:52:00,
2013-01-27 11:07:00,29.7,20.0,30.63,East,98,3.0,5.0,67,0.00,,,0.00,weatherlink.com 1.10,2013-01-27 16:07:00,
2013-01-27 11:22:00,30.1,20.0,30.63,ESE,112,3.0,4.0,67,0.00,,,0.00,weatherlink.com 1.10,2013-01-27 16:22:00,
2013-01-27 11:37:00,31.0,20.0,30.62,SE,132,2.0,3.0,64,0.00,,,0.00,weatherlink.com 1.10,2013-01-27 16:37:00,
2013-01-27 11:52:00,30.9,20.0,30.60,East,84,3.0,6.0,65,0.00,,,0.00,weatherlink.com 1.10,2013-01-27 16:52:00,
2013-01-27 12:07:00,30.9,20.0,30.59,ESE,117,3.0,5.0,64,0.00,,,0.00,weatherlink.com 1.10,2013-01-27 17:07:00,
2013-01-27 12:23:00,31.7,20.0,30.59,ESE,121,3.0,5.0,61,0.00,,,0.00,weatherlink.com 1.10,2013-01-27 17:23:00,
2013-01-27 12:37:00,30.7,22.0,30.58,East,100,3.0,7.0,69,0.00,,,0.00,weatherlink.com 1.10,2013-01-27 17:37:00,
2013-01-27 12:52:00,31.5,21.0,30.57,SE,124,4.0,6.0,66,0.00,,,0.00,weatherlink.com 1.10,2013-01-27 17:52:00,
2013-01-27 13:08:00,32.6,22.0,30.56,SE,143,6.0,7.0,64,0.00,,,0.00,weatherlink.com 1.10,2013-01-27 18:08:00,
2013-01-27 13:22:00,32.8,21.0,30.56,SSE,158,4.0,6.0,63,0.00,,,0.00,weatherlink.com 1.10,2013-01-27 18:22:00,
2013-01-27 13:37:00,33.2,21.0,30.55,SSE,158,7.0,8.0,61,0.00,,,0.00,weatherlink.com 1.10,2013-01-27 18:37:00,
2013-01-27 13:52:00,33.4,22.0,30.56,SSE,163,3.0,7.0,62,0.00,,,0.00,weatherlink.com 1.10,2013-01-27 18:52:00,
2013-01-27 14:08:00,33.8,21.0,30.55,South,190,4.0,5.0,61,0.00,,,0.00,weatherlink.com 1.10,2013-01-27 19:08:00,
2013-01-27 14:22:00,33.8,22.0,30.55,SSE,149,5.0,6.0,62,0.00,,,0.00,weatherlink.com 1.10,2013-01-27 19:22:00,
2013-01-27 14:37:00,33.8,22.0,30.55,SE,145,6.0,8.0,62,0.00,,,0.00,weatherlink.com 1.10,2013-01-27 19:37:00,
2013-01-27 14:52:00,33.8,22.0,30.55,SSE,149,8.0,9.0,62,0.00,,,0.00,weatherlink.com 1.10,2013-01-27 19:52:00,
2013-01-27 15:07:00,34.9,23.0,30.55,SSE,148,5.0,7.0,61,0.00,,,0.00,weatherlink.com 1.10,2013-01-27 20:07:00,
2013-01-27 15:22:00,34.7,23.0,30.55,South,181,5.0,8.0,62,0.00,,,0.00,weatherlink.com 1.10,2013-01-27 20:22:00,
2013-01-27 15:38:00,34.8,23.0,30.54,SSW,193,4.0,9.0,63,0.00,,,0.00,weatherlink.com 1.10,2013-01-27 20:38:00,
2013-01-27 15:53:00,34.1,23.0,30.55,SSW,197,7.0,9.0,65,0.00,,,0.00,weatherlink.com 1.10,2013-01-27 20:53:00,
2013-01-27 16:08:00,34.3,24.0,30.54,SSW,193,5.0,7.0,65,0.00,,,0.00,weatherlink.com 1.10,2013-01-27 21:08:00,
2013-01-27 16:23:00,35.1,24.0,30.55,SSW,213,4.0,6.0,65,0.00,,,0.00,weatherlink.com 1.10,2013-01-27 21:23:00,
2013-01-27 16:38:00,35.3,24.0,30.55,SSW,210,4.0,6.0,64,0.00,,,0.00,weatherlink.com 1.10,2013-01-27 21:38:00,
2013-01-27 16:53:00,33.5,24.0,30.55,SSW,207,2.0,6.0,68,0.00,,,0.00,weatherlink.com 1.10,2013-01-27 21:53:00,
2013-01-27 17:08:00,32.6,23.0,30.55,SSW,203,3.0,5.0,69,0.00,,,0.00,weatherlink.com 1.10,2013-01-27 22:08:00,
2013-01-27 17:23:00,32.1,24.0,30.55,SW,221,1.0,3.0,72,0.00,,,0.00,weatherlink.com 1.10,2013-01-27 22:23:00,
2013-01-27 17:38:00,31.7,24.0,30.56,SW,214,0.0,2.0,72,0.00,,,0.00,weatherlink.com 1.10,2013-01-27 22:38:00,
2013-01-27 17:53:00,31.3,24.0,30.56,SSW,207,0.0,1.0,74,0.00,,,0.00,weatherlink.com 1.10,2013-01-27 22:53:00,
2013-01-27 18:08:00,30.8,24.0,30.57,SSW,207,0.0,1.0,76,0.00,,,0.00,weatherlink.com 1.10,2013-01-27 23:08:00,
2013-01-27 18:23:00,30.4,24.0,30.56,SSW,207,1.0,1.0,77,0.00,,,0.00,weatherlink.com 1.10,2013-01-27 23:23:00,
2013-01-27 18:38:00,29.8,24.0,30.56,SSW,207,0.0,1.0,78,0.00,,,0.00,weatherlink.com 1.10,2013-01-27 23:38:00,
2013-01-27 18:53:00,29.5,24.0,30.57,SSW,207,0.0,1.0,80,0.00,,,0.00,weatherlink.com 1.10,2013-01-27 23:53:00,
2013-01-27 19:08:00,29.0,24.0,30.57,SSW,207,1.0,1.0,81,0.00,,,0.00,weatherlink.com 1.10,2013-01-28 00:08:00,
2013-01-27 19:23:00,28.9,24.0,30.57,SSW,207,0.0,1.0,82,0.00,,,0.00,weatherlink.com 1.10,2013-01-28 00:23:00,
2013-01-27 19:38:00,28.1,24.0,30.55,SSW,207,0.0,0.0,84,0.00,,,0.00,weatherlink.com 1.10,2013-01-28 00:38:00,
2013-01-27 19:53:00,28.0,24.0,30.56,North,6,3.0,3.0,85,0.00,,,0.00,weatherlink.com 1.10,2013-01-28 00:53:00,
2013-01-27 20:08:00,28.1,24.0,30.56,NNW,345,0.0,1.0,84,0.00,,,0.00,weatherlink.com 1.10,2013-01-28 01:08:00,
2013-01-27 20:23:00,29.0,25.0,30.55,West,273,0.0,1.0,83,0.00,,,0.00,weatherlink.com 1.10,2013-01-28 01:23:00,
2013-01-27 20:38:00,28.0,24.0,30.55,WNW,287,0.0,0.0,86,0.00,,,0.00,weatherlink.com 1.10,2013-01-28 01:38:00,
2013-01-27 20:53:00,27.8,24.0,30.55,WNW,287,0.0,0.0,86,0.00,,,0.00,weatherlink.com 1.10,2013-01-28 01:53:00,
2013-01-27 21:08:00,27.7,24.0,30.56,WNW,287,0.0,0.0,85,0.00,,,0.00,weatherlink.com 1.10,2013-01-28 02:08:00,
2013-01-27 21:23:00,27.6,24.0,30.57,NW,309,0.0,0.0,86,0.00,,,0.00,weatherlink.com 1.10,2013-01-28 02:23:00,
2013-01-27 21:38:00,27.1,23.0,30.57,NW,308,0.0,0.0,85,0.00,,,0.00,weatherlink.com 1.10,2013-01-28 02:38:00,
2013-01-27 21:53:00,27.0,23.0,30.56,SSW,210,0.0,0.0,86,0.00,,,0.00,weatherlink.com 1.10,2013-01-28 02:53:00,
2013-01-27 22:08:00,26.9,24.0,30.55,SSW,205,0.0,1.0,88,0.00,,,0.00,weatherlink.com 1.10,2013-01-28 03:08:00,
2013-01-27 22:23:00,26.7,23.0,30.54,SSW,205,0.0,0.0,87,0.00,,,0.00,weatherlink.com 1.10,2013-01-28 03:23:00,
2013-01-27 22:38:00,26.1,23.0,30.55,SSW,205,0.0,1.0,88,0.00,,,0.00,weatherlink.com 1.10,2013-01-28 03:38:00,
2013-01-27 22:53:00,25.9,23.0,30.54,SSW,205,0.0,0.0,89,0.00,,,0.00,weatherlink.com 1.10,2013-01-28 03:53:00,
2013-01-27 23:08:00,25.9,23.0,30.54,SSW,205,0.0,1.0,89,0.00,,,0.00,weatherlink.com 1.10,2013-01-28 04:08:00,
2013-01-27 23:23:00,26.5,23.0,30.55,WSW,253,0.0,0.0,86,0.00,,,0.00,weatherlink.com 1.10,2013-01-28 04:23:00,
2013-01-27 23:38:00,26.5,23.0,30.55,West,273,0.0,1.0,86,0.00,,,0.00,weatherlink.com 1.10,2013-01-28 04:38:00,
2013-01-27 23:53:00,27.0,23.0,30.55,West,262,1.0,1.0,86,0.00,,,0.00,weatherlink.com 1.10,2013-01-28 04:53:00,